createdAt,value
2017-09-24T00:01:17.348Z,91.80
2017-09-24T00:03:45.994Z,91.80
2017-09-24T00:06:13.961Z,91.80
2017-09-24T00:08:42.881Z,91.60
2017-09-24T00:11:10.625Z,91.80
2017-09-24T00:13:38.476Z,91.90
2017-09-24T00:16:06.382Z,92.00
2017-09-24T00:18:34.256Z,92.20
2017-09-24T00:21:02.899Z,92.20
2017-09-24T00:23:30.900Z,92.20
2017-09-24T00:25:58.809Z,92.30
2017-09-24T00:28:26.887Z,92.40
2017-09-24T00:30:54.731Z,92.40
2017-09-24T00:33:23.326Z,92.20
2017-09-24T00:35:51.309Z,92.20
2017-09-24T00:38:19.264Z,92.20
2017-09-24T00:40:47.182Z,92.30
2017-09-24T00:43:15.142Z,92.30
2017-09-24T00:45:42.918Z,92.00
2017-09-24T00:48:10.783Z,92.10
2017-09-24T00:50:39.674Z,92.20
2017-09-24T00:53:08.749Z,92.30
2017-09-24T00:55:36.837Z,92.40
2017-09-24T00:58:04.903Z,92.50
2017-09-24T01:00:32.869Z,92.60
2017-09-24T01:03:00.841Z,92.50
2017-09-24T01:05:29.316Z,92.80
2017-09-24T01:07:57.507Z,92.60
2017-09-24T01:10:26.364Z,92.60
2017-09-24T01:12:54.360Z,92.60
2017-09-24T01:15:22.271Z,92.60
2017-09-24T01:17:50.800Z,92.60
2017-09-24T01:20:18.680Z,92.50
2017-09-24T01:22:46.603Z,92.50
2017-09-24T01:25:14.923Z,92.10
2017-09-24T01:27:42.791Z,91.40
2017-09-24T01:30:11.565Z,91.10
2017-09-24T01:32:39.415Z,91.10
2017-09-24T01:35:07.304Z,91.30
2017-09-24T01:37:35.494Z,91.40
2017-09-24T01:40:05.469Z,91.50
2017-09-24T01:42:33.449Z,91.60
2017-09-24T01:45:04.142Z,91.60
2017-09-24T01:47:32.761Z,91.80
2017-09-24T01:50:00.814Z,91.80
2017-09-24T01:52:28.718Z,92.10
2017-09-24T01:54:57.513Z,92.10
2017-09-24T01:57:25.804Z,92.10
2017-09-24T01:59:53.772Z,92.30
2017-09-24T02:02:21.622Z,92.30
2017-09-24T02:04:49.390Z,92.80
2017-09-24T02:07:17.287Z,92.70
2017-09-24T02:09:46.863Z,92.80
2017-09-24T02:12:14.608Z,92.80
2017-09-24T02:14:42.391Z,92.90
2017-09-24T02:17:10.459Z,92.90
2017-09-24T02:19:38.328Z,92.70
2017-09-24T02:22:06.115Z,93.00
2017-09-24T02:24:34.673Z,93.50
2017-09-24T02:27:02.700Z,93.50
2017-09-24T02:29:31.253Z,93.60
2017-09-24T02:31:59.811Z,93.40
2017-09-24T02:34:27.562Z,93.40
2017-09-24T02:36:55.297Z,93.20
2017-09-24T02:39:23.122Z,93.20
2017-09-24T02:41:50.926Z,93.10
2017-09-24T02:44:18.836Z,92.80
2017-09-24T02:46:46.699Z,93.10
2017-09-24T02:49:15.512Z,93.40
2017-09-24T02:51:44.092Z,93.40
2017-09-24T02:54:12.743Z,93.40
2017-09-24T02:56:40.605Z,93.50
2017-09-24T02:59:08.595Z,93.30
2017-09-24T03:01:37.859Z,93.30
2017-09-24T03:04:05.777Z,93.50
2017-09-24T03:06:33.832Z,94.00
2017-09-24T03:09:01.596Z,94.40
2017-09-24T03:11:29.443Z,94.00
2017-09-24T03:13:57.241Z,94.80
2017-09-24T03:16:24.996Z,95.20
2017-09-24T03:18:54.492Z,95.00
2017-09-24T03:21:22.258Z,95.00
2017-09-24T03:23:50.079Z,95.20
2017-09-24T03:26:17.849Z,95.10
2017-09-24T03:28:45.652Z,95.20
2017-09-24T03:31:13.527Z,95.50
2017-09-24T03:33:41.567Z,95.50
2017-09-24T03:36:09.436Z,95.90
2017-09-24T03:38:37.320Z,96.70
2017-09-24T03:41:05.294Z,96.80
2017-09-24T03:43:33.110Z,96.60
2017-09-24T03:46:00.872Z,96.50
2017-09-24T03:48:28.688Z,96.50
2017-09-24T03:50:56.537Z,96.10
2017-09-24T03:53:24.281Z,95.50
2017-09-24T03:55:52.142Z,95.20
2017-09-24T03:58:19.895Z,95.30
2017-09-24T04:00:47.701Z,95.30
2017-09-24T04:03:15.447Z,95.20
2017-09-24T04:05:43.248Z,95.40
2017-09-24T04:08:11.115Z,95.50
2017-09-24T04:10:39.174Z,96.10
2017-09-24T04:13:06.942Z,95.70
2017-09-24T04:15:34.918Z,95.70
2017-09-24T04:18:02.880Z,96.00
2017-09-24T04:20:30.627Z,95.90
2017-09-24T04:22:58.456Z,96.60
2017-09-24T04:25:26.272Z,97.00
2017-09-24T04:27:54.204Z,96.70
2017-09-24T04:30:22.097Z,96.20
2017-09-24T04:32:50.011Z,96.40
2017-09-24T04:35:18.528Z,96.50
2017-09-24T04:37:46.274Z,96.50
2017-09-24T04:40:14.369Z,96.50
2017-09-24T04:42:42.243Z,96.70
2017-09-24T04:45:10.077Z,96.50
2017-09-24T04:47:38.315Z,96.40
2017-09-24T04:50:07.517Z,96.60
2017-09-24T04:52:36.578Z,96.70
2017-09-24T04:55:04.432Z,96.30
2017-09-24T04:57:32.218Z,96.30
2017-09-24T05:00:00.088Z,96.30
2017-09-24T05:02:28.250Z,95.90
2017-09-24T05:04:56.011Z,95.80
2017-09-24T05:07:23.977Z,95.70
2017-09-24T05:09:51.945Z,95.50
2017-09-24T05:12:19.842Z,95.20
2017-09-24T05:14:47.708Z,95.10
2017-09-24T05:17:15.447Z,95.20
2017-09-24T05:19:43.314Z,95.20
2017-09-24T05:22:11.172Z,95.40
2017-09-24T05:24:39.503Z,95.30
2017-09-24T05:27:08.131Z,95.70
2017-09-24T05:29:38.050Z,95.80
2017-09-24T05:32:05.814Z,95.70
2017-09-24T05:34:33.715Z,95.50
2017-09-24T05:37:01.481Z,95.60
2017-09-24T05:39:29.343Z,95.70
2017-09-24T05:41:57.144Z,96.00
2017-09-24T05:44:25.046Z,96.00
2017-09-24T05:46:52.908Z,95.80
2017-09-24T05:49:20.795Z,96.20
2017-09-24T05:51:48.836Z,96.40
2017-09-24T05:54:16.857Z,96.30
2017-09-24T05:56:44.910Z,96.10
2017-09-24T05:59:12.838Z,96.30
2017-09-24T06:01:40.848Z,95.70
2017-09-24T06:04:08.919Z,95.50
2017-09-24T06:06:37.851Z,95.10
2017-09-24T06:09:05.675Z,94.20
2017-09-24T06:11:33.449Z,94.60
2017-09-24T06:14:01.272Z,93.80
2017-09-24T06:16:29.356Z,92.60
2017-09-24T06:18:57.250Z,92.40
2017-09-24T06:21:25.204Z,91.30
2017-09-24T06:23:53.364Z,90.90
2017-09-24T06:26:21.439Z,89.50
2017-09-24T06:28:49.619Z,89.00
2017-09-24T06:31:17.652Z,90.10
2017-09-24T06:33:45.582Z,90.80
2017-09-24T06:36:13.521Z,90.80
2017-09-24T06:38:41.724Z,91.30
2017-09-24T06:41:09.664Z,91.40
2017-09-24T06:43:37.553Z,91.60
2017-09-24T06:46:05.615Z,91.30
2017-09-24T06:48:33.529Z,91.40
2017-09-24T06:51:01.642Z,91.40
2017-09-24T06:53:29.942Z,91.50
2017-09-24T06:55:57.811Z,91.60
2017-09-24T06:58:26.807Z,91.80
2017-09-24T07:00:54.877Z,91.80
2017-09-24T07:03:22.829Z,91.80
2017-09-24T07:05:50.882Z,91.80
2017-09-24T07:08:18.875Z,91.70
2017-09-24T07:10:46.753Z,91.80
2017-09-24T07:13:14.794Z,92.00
2017-09-24T07:18:17.176Z,91.60
2017-09-24T07:20:45.071Z,91.30
2017-09-24T07:23:13.426Z,91.30
2017-09-24T07:25:41.330Z,91.40
2017-09-24T07:28:10.080Z,91.20
2017-09-24T07:30:38.155Z,91.30
2017-09-24T07:33:06.121Z,91.00
2017-09-24T07:35:33.952Z,90.80
2017-09-24T07:38:01.889Z,91.00
2017-09-24T07:40:30.620Z,91.10
2017-09-24T07:42:59.011Z,91.10
2017-09-24T07:45:26.936Z,91.10
2017-09-24T07:47:55.578Z,91.20
2017-09-24T07:50:23.539Z,91.20
2017-09-24T07:52:52.051Z,91.70
2017-09-24T07:55:19.866Z,91.70
2017-09-24T07:57:47.791Z,92.00
2017-09-24T08:00:15.721Z,92.20
2017-09-24T08:02:43.684Z,92.40
2017-09-24T08:05:18.599Z,92.50
2017-09-24T08:07:48.305Z,92.90
2017-09-24T08:10:18.966Z,93.30
2017-09-24T08:12:53.887Z,93.30
2017-09-24T08:15:49.757Z,93.20
2017-09-24T08:18:17.828Z,93.30
2017-09-24T08:20:45.684Z,92.90
2017-09-24T08:23:13.581Z,92.80
2017-09-24T08:25:42.340Z,92.60
2017-09-24T08:28:10.740Z,92.60
2017-09-24T08:30:39.293Z,92.50
2017-09-24T08:33:07.164Z,92.40
2017-09-24T08:35:34.940Z,91.40
2017-09-24T08:38:03.582Z,90.30
2017-09-24T08:40:31.348Z,90.30
2017-09-24T08:42:59.955Z,90.10
2017-09-24T08:45:27.824Z,90.10
2017-09-24T08:47:55.769Z,86.50
2017-09-24T08:50:23.569Z,83.50
2017-09-24T08:52:51.326Z,80.00
2017-09-24T08:55:19.162Z,83.30
2017-09-24T08:57:47.051Z,80.60
2017-09-24T09:00:14.823Z,78.20
2017-09-24T09:02:43.899Z,76.00
2017-09-24T09:05:11.778Z,76.60
2017-09-24T09:07:40.286Z,77.80
2017-09-24T09:10:12.170Z,78.30
2017-09-24T09:12:39.951Z,78.40
2017-09-24T09:15:07.765Z,76.30
2017-09-24T09:17:38.447Z,74.20
2017-09-24T09:20:06.247Z,77.10
2017-09-24T09:22:34.014Z,72.90
2017-09-24T09:25:02.274Z,66.90
2017-09-24T09:27:30.368Z,64.20
2017-09-24T09:29:58.336Z,60.30
2017-09-24T09:32:26.396Z,64.10
2017-09-24T09:35:06.252Z,68.00
2017-09-24T09:37:34.115Z,68.80
2017-09-24T09:40:01.977Z,70.30
2017-09-24T09:42:29.857Z,69.40
2017-09-24T09:44:57.795Z,70.70
2017-09-24T09:47:26.664Z,69.90
2017-09-24T09:49:54.571Z,68.70
2017-09-24T09:52:22.351Z,68.20
2017-09-24T09:54:50.393Z,66.90
2017-09-24T09:57:18.249Z,61.90
2017-09-24T09:59:46.173Z,57.80
2017-09-24T10:02:14.105Z,58.10
2017-09-24T10:04:42.058Z,56.90
2017-09-24T10:07:21.909Z,56.30
2017-09-24T10:10:01.793Z,56.90
2017-09-24T10:12:31.461Z,62.30
2017-09-24T10:14:59.350Z,61.50
2017-09-24T10:17:27.213Z,59.40
2017-09-24T10:19:55.265Z,60.00
2017-09-24T10:22:23.109Z,57.50
2017-09-24T10:24:52.007Z,57.20
2017-09-24T10:27:19.792Z,58.80
2017-09-24T10:29:59.760Z,60.10
2017-09-24T10:32:27.941Z,60.30
2017-09-24T10:34:55.881Z,59.20
2017-09-24T10:37:23.749Z,57.70
2017-09-24T10:39:52.444Z,57.90
2017-09-24T10:42:20.424Z,57.10
2017-09-24T10:44:49.291Z,58.90
2017-09-24T10:47:17.074Z,58.30
2017-09-24T10:49:45.142Z,61.30
2017-09-24T10:52:12.924Z,56.70
2017-09-24T10:54:42.206Z,55.90
2017-09-24T10:57:10.097Z,55.80
2017-09-24T10:59:38.765Z,56.80
2017-09-24T11:02:06.652Z,56.70
2017-09-24T11:04:35.506Z,56.90
2017-09-24T11:07:03.468Z,57.00
2017-09-24T11:09:31.361Z,55.70
2017-09-24T11:11:59.234Z,56.60
2017-09-24T11:14:28.630Z,56.60
2017-09-24T11:16:56.496Z,56.60
2017-09-24T11:19:24.252Z,58.50
2017-09-24T11:21:52.068Z,55.90
2017-09-24T11:24:19.839Z,57.20
2017-09-24T11:26:47.657Z,57.70
2017-09-24T11:29:15.529Z,57.40
2017-09-24T11:31:53.609Z,55.80
2017-09-24T11:34:21.508Z,55.80
2017-09-24T11:36:50.072Z,57.40
2017-09-24T11:39:17.922Z,57.30
2017-09-24T11:41:45.914Z,55.10
2017-09-24T11:44:13.886Z,54.10
2017-09-24T11:46:42.262Z,54.60
2017-09-24T11:49:10.012Z,56.80
2017-09-24T11:51:37.891Z,57.30
2017-09-24T11:54:05.735Z,56.40
2017-09-24T11:56:33.809Z,56.10
2017-09-24T11:59:01.705Z,58.50
2017-09-24T12:01:30.297Z,55.80
2017-09-24T12:03:59.173Z,56.40
2017-09-24T12:06:27.319Z,55.80
2017-09-24T12:08:55.208Z,56.00
2017-09-24T12:11:23.157Z,56.60
2017-09-24T12:13:51.080Z,54.10
2017-09-24T12:16:19.730Z,57.90
2017-09-24T12:18:47.612Z,58.00
2017-09-24T12:21:16.196Z,57.10
2017-09-24T12:23:44.884Z,55.10
2017-09-24T12:26:13.462Z,54.70
2017-09-24T12:28:42.216Z,55.50
2017-09-24T12:31:10.110Z,54.90
2017-09-24T12:33:44.705Z,55.50
2017-09-24T12:36:12.601Z,56.80
2017-09-24T12:38:40.544Z,56.90
2017-09-24T12:41:08.537Z,55.30
2017-09-24T12:43:36.370Z,57.70
2017-09-24T12:46:04.243Z,55.20
2017-09-24T12:48:33.137Z,55.40
2017-09-24T12:51:01.138Z,54.40
2017-09-24T12:53:36.144Z,56.40
2017-09-24T12:56:04.174Z,58.30
2017-09-24T12:58:32.105Z,54.00
2017-09-24T13:00:59.963Z,55.20
2017-09-24T13:03:27.760Z,53.60
2017-09-24T13:05:56.416Z,54.20
2017-09-24T13:08:24.463Z,54.20
2017-09-24T13:10:52.285Z,55.70
2017-09-24T13:13:20.941Z,53.60
2017-09-24T13:15:49.600Z,56.10
2017-09-24T13:18:17.568Z,56.20
2017-09-24T13:20:45.349Z,53.80
2017-09-24T13:23:13.435Z,52.60
2017-09-24T13:25:42.001Z,55.90
2017-09-24T13:28:09.964Z,56.10
2017-09-24T13:30:37.926Z,53.10
2017-09-24T13:33:05.937Z,54.90
2017-09-24T13:35:34.588Z,56.20
2017-09-24T13:38:02.467Z,56.20
2017-09-24T13:40:30.339Z,55.80
2017-09-24T13:42:59.353Z,56.20
2017-09-24T13:45:28.003Z,55.10
2017-09-24T13:47:55.979Z,55.10
2017-09-24T13:50:23.932Z,55.80
2017-09-24T13:52:52.000Z,58.00
2017-09-24T13:55:19.996Z,57.10
2017-09-24T13:57:47.971Z,58.80
2017-09-24T14:00:15.841Z,60.60
2017-09-24T14:02:44.412Z,62.30
2017-09-24T14:05:12.218Z,62.20
2017-09-24T14:07:40.937Z,60.90
2017-09-24T14:10:08.796Z,60.90
2017-09-24T14:12:36.590Z,62.60
2017-09-24T14:15:04.537Z,63.50
2017-09-24T14:17:32.328Z,63.20
2017-09-24T14:20:00.280Z,66.40
2017-09-24T14:22:28.754Z,67.40
2017-09-24T14:24:56.926Z,66.00
2017-09-24T14:27:24.810Z,65.50
2017-09-24T14:29:52.761Z,61.80
2017-09-24T14:32:20.633Z,61.50
2017-09-24T14:34:48.518Z,59.30
2017-09-24T14:37:16.475Z,60.90
2017-09-24T14:39:45.076Z,61.70
2017-09-24T14:42:12.937Z,60.90
2017-09-24T14:44:41.606Z,58.70
2017-09-24T14:47:09.635Z,59.10
2017-09-24T14:49:37.744Z,58.10
2017-09-24T14:52:05.817Z,59.00
2017-09-24T14:54:33.690Z,58.10
2017-09-24T14:57:01.676Z,57.90
2017-09-24T14:59:29.622Z,58.30
2017-09-24T15:01:57.804Z,57.30
2017-09-24T15:04:26.427Z,57.10
2017-09-24T15:06:55.169Z,55.10
2017-09-24T15:09:23.045Z,55.20
2017-09-24T15:11:51.104Z,55.10
2017-09-24T15:14:19.891Z,55.70
2017-09-24T15:16:47.860Z,55.80
2017-09-24T15:19:16.063Z,54.00
2017-09-24T15:21:44.004Z,52.50
2017-09-24T15:24:11.841Z,53.70
2017-09-24T15:26:40.285Z,53.40
2017-09-24T15:29:09.039Z,52.90
2017-09-24T15:31:36.829Z,52.80
2017-09-24T15:34:04.769Z,52.40
2017-09-24T15:36:32.738Z,51.80
2017-09-24T15:39:00.724Z,51.70
2017-09-24T15:41:29.421Z,52.50
2017-09-24T15:43:57.944Z,54.80
2017-09-24T15:46:25.760Z,54.80
2017-09-24T15:48:53.835Z,56.90
2017-09-24T15:51:22.293Z,57.00
2017-09-24T15:53:50.159Z,59.60
2017-09-24T15:56:19.070Z,62.60
2017-09-24T15:58:47.019Z,63.30
2017-09-24T16:01:15.014Z,64.60
2017-09-24T16:03:42.805Z,64.10
2017-09-24T16:06:11.439Z,65.50
2017-09-24T16:08:39.404Z,65.40
2017-09-24T16:11:08.500Z,67.20
2017-09-24T16:13:36.400Z,68.00
2017-09-24T16:16:04.236Z,68.50
2017-09-24T16:18:32.201Z,68.80
2017-09-24T16:21:00.088Z,69.20
2017-09-24T16:23:27.920Z,68.30
2017-09-24T16:25:56.008Z,69.70
2017-09-24T16:28:23.909Z,69.40
2017-09-24T16:30:52.048Z,70.60
2017-09-24T16:33:20.222Z,70.10
2017-09-24T16:35:48.296Z,70.70
2017-09-24T16:38:16.077Z,71.50
2017-09-24T16:40:44.233Z,71.90
2017-09-24T16:43:12.208Z,72.60
2017-09-24T16:45:40.094Z,72.60
2017-09-24T16:48:09.100Z,72.30
2017-09-24T16:50:37.775Z,73.70
2017-09-24T16:53:05.633Z,73.70
2017-09-24T16:55:33.616Z,75.00
2017-09-24T16:58:01.764Z,74.90
2017-09-24T17:00:29.823Z,75.90
2017-09-24T17:02:57.900Z,75.50
2017-09-24T17:05:26.049Z,76.00
2017-09-24T17:07:54.047Z,76.60
2017-09-24T17:10:22.032Z,78.10
2017-09-24T17:12:49.944Z,79.90
2017-09-24T17:15:17.980Z,80.30
2017-09-24T17:17:46.654Z,81.50
2017-09-24T17:20:14.597Z,81.40
2017-09-24T17:22:42.718Z,81.90
2017-09-24T17:25:11.661Z,76.90
2017-09-24T17:27:39.435Z,76.80
2017-09-24T17:30:07.528Z,74.40
2017-09-24T17:32:35.325Z,73.00
2017-09-24T17:35:03.230Z,72.70
2017-09-24T17:37:31.304Z,72.10
2017-09-24T17:39:59.483Z,73.30
2017-09-24T17:42:27.484Z,72.40
2017-09-24T17:44:56.368Z,74.50
2017-09-24T17:47:24.333Z,76.80
2017-09-24T17:49:52.131Z,77.80
2017-09-24T17:52:20.677Z,79.00
2017-09-24T17:54:48.621Z,79.90
2017-09-24T17:57:16.633Z,80.60
2017-09-24T17:59:45.378Z,82.50
2017-09-24T18:02:13.348Z,82.50
2017-09-24T18:04:41.315Z,83.40
2017-09-24T18:07:09.317Z,83.90
2017-09-24T18:09:37.992Z,85.00
2017-09-24T18:12:05.965Z,84.90
2017-09-24T18:14:33.847Z,83.90
2017-09-24T18:17:02.495Z,82.40
2017-09-24T18:19:30.455Z,82.30
2017-09-24T18:21:58.465Z,82.70
2017-09-24T18:24:27.222Z,82.30
2017-09-24T18:26:55.195Z,82.30
2017-09-24T18:29:23.272Z,80.90
2017-09-24T18:31:51.434Z,80.10
2017-09-24T18:34:19.451Z,80.00
2017-09-24T18:36:47.367Z,80.20
2017-09-24T18:39:15.365Z,80.80
2017-09-24T18:41:44.122Z,80.80
2017-09-24T18:44:11.988Z,80.80
2017-09-24T18:46:39.961Z,81.20
2017-09-24T18:49:08.748Z,81.00
2017-09-24T18:51:37.243Z,82.50
2017-09-24T18:54:09.624Z,82.90
2017-09-24T18:56:37.570Z,82.50
2017-09-24T18:59:05.742Z,83.00
2017-09-24T19:01:33.821Z,82.50
2017-09-24T19:04:01.782Z,82.20
2017-09-24T19:06:30.170Z,82.80
2017-09-24T19:08:59.464Z,83.40
2017-09-24T19:11:27.783Z,83.40
2017-09-24T19:13:55.823Z,83.10
2017-09-24T19:16:23.780Z,83.30
2017-09-24T19:18:52.258Z,82.40
2017-09-24T19:21:20.992Z,82.20
2017-09-24T19:23:49.787Z,82.10
2017-09-24T19:26:18.408Z,81.60
2017-09-24T19:28:46.713Z,80.80
2017-09-24T19:31:15.685Z,80.90
2017-09-24T19:33:43.865Z,81.00
2017-09-24T19:36:12.157Z,81.40
2017-09-24T19:38:41.537Z,84.00
2017-09-24T19:41:10.633Z,86.40
2017-09-24T19:43:38.956Z,86.40
2017-09-24T19:46:07.186Z,87.70
2017-09-24T19:48:35.154Z,88.70
2017-09-24T19:51:03.225Z,89.70
2017-09-24T19:53:31.296Z,88.20
2017-09-24T19:55:59.396Z,89.70
2017-09-24T19:58:27.434Z,90.60
2017-09-24T20:00:55.326Z,90.50
2017-09-24T20:03:23.214Z,90.80
2017-09-24T20:05:51.930Z,91.30
2017-09-24T20:08:19.930Z,91.00
2017-09-24T20:10:48.856Z,91.20
2017-09-24T20:13:16.788Z,91.50
2017-09-24T20:15:44.860Z,91.40
2017-09-24T20:18:13.748Z,91.40
2017-09-24T20:20:41.636Z,91.70
2017-09-24T20:23:09.892Z,91.40
2017-09-24T20:25:37.777Z,91.50
2017-09-24T20:28:05.911Z,91.70
2017-09-24T20:30:34.007Z,92.80
2017-09-24T20:33:02.074Z,92.90
2017-09-24T20:35:29.954Z,93.20
2017-09-24T20:37:58.047Z,92.60
2017-09-24T20:40:26.601Z,92.20
2017-09-24T20:42:54.496Z,91.20
2017-09-24T20:45:22.360Z,92.10
2017-09-24T20:47:50.412Z,92.60
2017-09-24T20:50:18.681Z,92.60
2017-09-24T20:52:46.572Z,92.80
2017-09-24T20:55:14.747Z,93.00
2017-09-24T20:57:43.933Z,93.00
2017-09-24T21:00:11.899Z,93.00
2017-09-24T21:02:39.853Z,93.20
2017-09-24T21:05:07.817Z,93.10
2017-09-24T21:07:35.711Z,93.30
2017-09-24T21:10:03.550Z,93.10
2017-09-24T21:12:31.334Z,93.20
2017-09-24T21:14:59.659Z,93.00
2017-09-24T21:17:27.459Z,93.10
2017-09-24T21:19:55.243Z,93.20
2017-09-24T21:22:23.109Z,93.00
2017-09-24T21:24:51.087Z,93.30
2017-09-24T21:27:19.022Z,93.40
2017-09-24T21:29:46.809Z,93.40
2017-09-24T21:32:14.672Z,93.30
2017-09-24T21:34:42.584Z,93.70
2017-09-24T21:37:11.537Z,93.50
2017-09-24T21:39:39.413Z,93.50
2017-09-24T21:42:07.454Z,93.30
2017-09-24T21:44:35.420Z,93.40
2017-09-24T21:47:03.392Z,93.60
2017-09-24T21:49:31.280Z,93.20
2017-09-24T21:51:59.226Z,93.40
2017-09-24T21:54:27.042Z,93.00
2017-09-24T21:56:55.779Z,93.90
2017-09-24T21:59:23.560Z,93.90
2017-09-24T22:01:51.410Z,94.10
2017-09-24T22:04:19.299Z,93.90
2017-09-24T22:06:47.144Z,93.80
2017-09-24T22:09:14.979Z,94.00
2017-09-24T22:11:42.796Z,94.10
2017-09-24T22:14:11.001Z,94.10
2017-09-24T22:16:39.738Z,94.00
2017-09-24T22:19:07.621Z,94.00
2017-09-24T22:21:35.385Z,93.90
2017-09-24T22:24:03.337Z,93.00
2017-09-24T22:26:31.110Z,92.60
2017-09-24T22:28:58.860Z,92.20
2017-09-24T22:31:26.648Z,92.80
2017-09-24T22:33:54.521Z,93.10
2017-09-24T22:36:23.102Z,92.70
2017-09-24T22:38:52.682Z,92.80
2017-09-24T22:41:20.415Z,92.80
2017-09-24T22:43:48.227Z,92.80
2017-09-24T22:46:16.099Z,92.60
2017-09-24T22:48:43.961Z,92.30
2017-09-24T22:51:11.862Z,92.40
2017-09-24T22:53:40.415Z,93.10
2017-09-24T22:56:08.296Z,93.10
2017-09-24T22:58:36.901Z,93.10
2017-09-24T23:01:05.567Z,93.20
2017-09-24T23:03:33.498Z,93.30
2017-09-24T23:06:02.422Z,93.20
2017-09-24T23:08:30.279Z,93.40
2017-09-24T23:10:58.029Z,93.90
2017-09-24T23:13:25.798Z,93.70
2017-09-24T23:15:54.415Z,93.80
2017-09-24T23:18:22.936Z,93.40
2017-09-24T23:20:50.680Z,93.40
2017-09-24T23:23:18.504Z,93.70
2017-09-24T23:25:46.354Z,93.60
2017-09-24T23:28:14.523Z,93.60
2017-09-24T23:30:42.404Z,93.60
2017-09-24T23:33:10.407Z,93.60
2017-09-24T23:35:38.916Z,93.80
2017-09-24T23:40:32.638Z,93.80
2017-09-24T23:43:00.431Z,93.80
2017-09-24T23:45:28.957Z,93.90
2017-09-24T23:47:56.862Z,93.90
2017-09-24T23:50:24.721Z,93.90
2017-09-24T23:52:52.788Z,93.70
2017-09-24T23:55:20.746Z,93.90
2017-09-24T23:57:48.837Z,93.90
